sensor_id;sensor_type;location;lat;lon;timestamp;P1;P2;P0
68841;PMS5003;55849;48.482;2.332;2023-05-07T00:02:08;0.00;0.00;0.00
68841;PMS5003;55849;48.482;2.332;2023-05-07T00:05:10;0.00;0.00;0.00
68841;PMS5003;55849;48.482;2.332;2023-05-07T00:08:12;0.00;0.00;0.00
68841;PMS5003;55849;48.482;2.332;2023-05-07T00:11:14;0.00;0.00;0.00
68841;PMS5003;55849;48.482;2.332;2023-05-07T00:14:17;0.00;0.00;0.00
68841;PMS5003;55849;48.482;2.332;2023-05-07T00:17:18;0.00;0.00;0.00
68841;PMS5003;55849;48.482;2.332;2023-05-07T00:20:20;0.00;0.00;0.00
68841;PMS5003;55849;48.482;2.332;2023-05-07T00:23:22;0.00;0.00;0.00
68841;PMS5003;55849;48.482;2.332;2023-05-07T00:26:23;0.00;0.00;0.00
68841;PMS5003;55849;48.482;2.332;2023-05-07T00:29:26;1.00;0.00;0.00
68841;PMS5003;55849;48.482;2.332;2023-05-07T00:32:28;0.00;0.00;0.00
68841;PMS5003;55849;48.482;2.332;2023-05-07T00:35:29;0.00;0.00;0.00
68841;PMS5003;55849;48.482;2.332;2023-05-07T00:38:31;0.00;0.00;0.00
68841;PMS5003;55849;48.482;2.332;2023-05-07T00:41:33;0.00;0.00;0.00
68841;PMS5003;55849;48.482;2.332;2023-05-07T00:44:36;1.50;0.00;0.00
68841;PMS5003;55849;48.482;2.332;2023-05-07T00:47:37;0.00;0.00;0.00
68841;PMS5003;55849;48.482;2.332;2023-05-07T00:50:39;0.00;0.00;0.00
68841;PMS5003;55849;48.482;2.332;2023-05-07T00:53:41;0.00;0.00;0.00
68841;PMS5003;55849;48.482;2.332;2023-05-07T00:56:42;0.00;0.00;0.00
68841;PMS5003;55849;48.482;2.332;2023-05-07T00:59:46;0.25;0.00;0.00
68841;PMS5003;55849;48.482;2.332;2023-05-07T01:02:48;1.00;1.00;0.00
68841;PMS5003;55849;48.482;2.332;2023-05-07T01:05:49;0.00;0.00;0.00
68841;PMS5003;55849;48.482;2.332;2023-05-07T01:08:53;0.00;0.00;0.00
68841;PMS5003;55849;48.482;2.332;2023-05-07T01:11:56;0.50;0.50;0.00
68841;PMS5003;55849;48.482;2.332;2023-05-07T01:15:00;0.00;0.00;0.00
68841;PMS5003;55849;48.482;2.332;2023-05-07T01:18:03;0.75;0.75;0.00
68841;PMS5003;55849;48.482;2.332;2023-05-07T01:21:05;0.00;0.00;0.00
68841;PMS5003;55849;48.482;2.332;2023-05-07T01:24:11;0.00;0.00;0.00
68841;PMS5003;55849;48.482;2.332;2023-05-07T01:27:13;0.00;0.00;0.00
68841;PMS5003;55849;48.482;2.332;2023-05-07T01:30:15;0.00;0.00;0.00
68841;PMS5003;55849;48.482;2.332;2023-05-07T01:33:20;0.50;0.00;0.00
68841;PMS5003;55849;48.482;2.332;2023-05-07T01:36:22;0.00;0.00;0.00
68841;PMS5003;55849;48.482;2.332;2023-05-07T01:39:28;0.00;0.00;0.00
68841;PMS5003;55849;48.482;2.332;2023-05-07T01:42:30;0.00;0.00;0.00
68841;PMS5003;55849;48.482;2.332;2023-05-07T01:45:32;1.00;0.00;0.00
68841;PMS5003;55849;48.482;2.332;2023-05-07T01:48:35;0.00;0.00;0.00
68841;PMS5003;55849;48.482;2.332;2023-05-07T01:51:37;0.00;0.00;0.00
68841;PMS5003;55849;48.482;2.332;2023-05-07T01:54:41;0.00;0.00;0.00
68841;PMS5003;55849;48.482;2.332;2023-05-07T01:57:43;0.00;0.00;0.00
68841;PMS5003;55849;48.482;2.332;2023-05-07T02:00:45;0.00;0.00;0.00
68841;PMS5003;55849;48.482;2.332;2023-05-07T02:03:47;0.00;0.00;0.00
68841;PMS5003;55849;48.482;2.332;2023-05-07T02:06:48;0.00;0.00;0.00
68841;PMS5003;55849;48.482;2.332;2023-05-07T02:09:51;0.00;0.00;0.00
68841;PMS5003;55849;48.482;2.332;2023-05-07T02:12:53;0.75;0.00;0.00
68841;PMS5003;55849;48.482;2.332;2023-05-07T02:15:55;0.50;0.00;0.00
68841;PMS5003;55849;48.482;2.332;2023-05-07T02:18:57;0.00;0.00;0.00
68841;PMS5003;55849;48.482;2.332;2023-05-07T02:21:59;0.75;0.00;0.00
68841;PMS5003;55849;48.482;2.332;2023-05-07T02:25:01;0.50;0.00;0.00
68841;PMS5003;55849;48.482;2.332;2023-05-07T02:28:04;1.25;0.25;0.00
68841;PMS5003;55849;48.482;2.332;2023-05-07T02:31:05;0.00;0.00;0.00
68841;PMS5003;55849;48.482;2.332;2023-05-07T02:34:07;0.00;0.00;0.00
68841;PMS5003;55849;48.482;2.332;2023-05-07T02:37:08;0.00;0.00;0.00
68841;PMS5003;55849;48.482;2.332;2023-05-07T02:40:12;0.00;0.00;0.00
68841;PMS5003;55849;48.482;2.332;2023-05-07T02:43:14;0.00;0.00;0.00
68841;PMS5003;55849;48.482;2.332;2023-05-07T02:46:15;2.00;0.00;0.00
68841;PMS5003;55849;48.482;2.332;2023-05-07T02:49:17;0.00;0.00;0.00
68841;PMS5003;55849;48.482;2.332;2023-05-07T02:52:19;0.00;0.00;0.00
68841;PMS5003;55849;48.482;2.332;2023-05-07T02:55:22;0.00;0.00;0.00
68841;PMS5003;55849;48.482;2.332;2023-05-07T02:58:23;0.00;0.00;0.00
68841;PMS5003;55849;48.482;2.332;2023-05-07T03:01:25;0.00;0.00;0.00
68841;PMS5003;55849;48.482;2.332;2023-05-07T03:04:27;0.00;0.00;0.00
68841;PMS5003;55849;48.482;2.332;2023-05-07T03:07:29;0.00;0.00;0.00
68841;PMS5003;55849;48.482;2.332;2023-05-07T03:10:32;1.00;1.00;0.75
68841;PMS5003;55849;48.482;2.332;2023-05-07T03:13:33;0.00;0.00;0.00
68841;PMS5003;55849;48.482;2.332;2023-05-07T03:16:35;1.00;1.00;0.00
68841;PMS5003;55849;48.482;2.332;2023-05-07T03:19:37;0.00;0.00;0.00
68841;PMS5003;55849;48.482;2.332;2023-05-07T03:22:38;0.00;0.00;0.00
68841;PMS5003;55849;48.482;2.332;2023-05-07T03:25:42;0.25;0.25;0.25
68841;PMS5003;55849;48.482;2.332;2023-05-07T03:28:43;1.00;1.00;0.50
68841;PMS5003;55849;48.482;2.332;2023-05-07T03:31:45;0.75;0.75;0.00
68841;PMS5003;55849;48.482;2.332;2023-05-07T03:34:46;0.00;0.00;0.00
68841;PMS5003;55849;48.482;2.332;2023-05-07T03:37:48;0.00;0.00;0.00
68841;PMS5003;55849;48.482;2.332;2023-05-07T03:40:52;0.00;0.00;0.00
68841;PMS5003;55849;48.482;2.332;2023-05-07T03:43:53;0.00;0.00;0.00
68841;PMS5003;55849;48.482;2.332;2023-05-07T03:46:55;0.00;0.00;0.00
68841;PMS5003;55849;48.482;2.332;2023-05-07T03:49:56;0.00;0.00;0.00
68841;PMS5003;55849;48.482;2.332;2023-05-07T03:52:59;1.00;1.00;0.00
68841;PMS5003;55849;48.482;2.332;2023-05-07T03:56:02;1.50;0.00;0.00
68841;PMS5003;55849;48.482;2.332;2023-05-07T03:59:04;0.50;0.50;0.00
68841;PMS5003;55849;48.482;2.332;2023-05-07T04:02:06;1.00;1.00;0.00
68841;PMS5003;55849;48.482;2.332;2023-05-07T04:05:07;1.00;1.00;0.25
68841;PMS5003;55849;48.482;2.332;2023-05-07T04:08:09;0.00;0.00;0.00
68841;PMS5003;55849;48.482;2.332;2023-05-07T04:11:12;0.00;0.00;0.00
68841;PMS5003;55849;48.482;2.332;2023-05-07T04:14:14;0.00;0.00;0.00
68841;PMS5003;55849;48.482;2.332;2023-05-07T04:17:15;0.00;0.00;0.00
68841;PMS5003;55849;48.482;2.332;2023-05-07T04:20:17;0.00;0.00;0.00
68841;PMS5003;55849;48.482;2.332;2023-05-07T04:23:19;0.25;0.25;0.00
68841;PMS5003;55849;48.482;2.332;2023-05-07T04:26:22;0.75;0.75;0.00
68841;PMS5003;55849;48.482;2.332;2023-05-07T04:29:24;1.00;1.00;0.00
68841;PMS5003;55849;48.482;2.332;2023-05-07T04:32:25;0.25;0.00;0.00
68841;PMS5003;55849;48.482;2.332;2023-05-07T04:35:29;1.00;1.00;0.25
68841;PMS5003;55849;48.482;2.332;2023-05-07T04:38:31;0.00;0.00;0.00
68841;PMS5003;55849;48.482;2.332;2023-05-07T04:41:34;0.00;0.00;0.00
68841;PMS5003;55849;48.482;2.332;2023-05-07T04:44:37;1.00;1.00;1.00
68841;PMS5003;55849;48.482;2.332;2023-05-07T04:47:38;1.50;0.75;0.00
68841;PMS5003;55849;48.482;2.332;2023-05-07T04:50:40;1.00;1.00;0.00
68841;PMS5003;55849;48.482;2.332;2023-05-07T04:53:41;1.00;1.00;0.00
68841;PMS5003;55849;48.482;2.332;2023-05-07T04:56:44;0.00;0.00;0.00
68841;PMS5003;55849;48.482;2.332;2023-05-07T04:59:46;2.50;1.00;0.00
68841;PMS5003;55849;48.482;2.332;2023-05-07T05:02:48;1.00;1.00;0.00
68841;PMS5003;55849;48.482;2.332;2023-05-07T05:05:50;0.00;0.00;0.00
68841;PMS5003;55849;48.482;2.332;2023-05-07T05:08:52;1.25;0.00;0.00
68841;PMS5003;55849;48.482;2.332;2023-05-07T05:11:55;0.50;0.50;0.00
68841;PMS5003;55849;48.482;2.332;2023-05-07T05:14:57;0.00;0.00;0.00
68841;PMS5003;55849;48.482;2.332;2023-05-07T05:17:59;0.00;0.00;0.00
68841;PMS5003;55849;48.482;2.332;2023-05-07T05:21:00;0.00;0.00;0.00
68841;PMS5003;55849;48.482;2.332;2023-05-07T05:24:02;0.00;0.00;0.00
68841;PMS5003;55849;48.482;2.332;2023-05-07T05:27:05;0.25;0.25;0.00
68841;PMS5003;55849;48.482;2.332;2023-05-07T05:30:07;0.00;0.00;0.00
68841;PMS5003;55849;48.482;2.332;2023-05-07T05:33:09;0.75;0.00;0.00
68841;PMS5003;55849;48.482;2.332;2023-05-07T05:36:10;0.25;0.25;0.00
68841;PMS5003;55849;48.482;2.332;2023-05-07T05:39:13;0.00;0.00;0.00
68841;PMS5003;55849;48.482;2.332;2023-05-07T05:42:16;0.00;0.00;0.00
68841;PMS5003;55849;48.482;2.332;2023-05-07T05:45:18;1.00;0.00;0.00
68841;PMS5003;55849;48.482;2.332;2023-05-07T05:48:19;0.00;0.00;0.00
68841;PMS5003;55849;48.482;2.332;2023-05-07T05:51:21;2.00;0.00;0.00
68841;PMS5003;55849;48.482;2.332;2023-05-07T05:54:23;0.00;0.00;0.00
68841;PMS5003;55849;48.482;2.332;2023-05-07T05:57:26;0.00;0.00;0.00
68841;PMS5003;55849;48.482;2.332;2023-05-07T06:00:28;0.00;0.00;0.00
68841;PMS5003;55849;48.482;2.332;2023-05-07T06:03:29;0.00;0.00;0.00
68841;PMS5003;55849;48.482;2.332;2023-05-07T06:06:32;1.25;1.25;1.00
68841;PMS5003;55849;48.482;2.332;2023-05-07T06:09:33;0.00;0.00;0.00
68841;PMS5003;55849;48.482;2.332;2023-05-07T06:12:36;0.00;0.00;0.00
68841;PMS5003;55849;48.482;2.332;2023-05-07T06:15:38;0.00;0.00;0.00
68841;PMS5003;55849;48.482;2.332;2023-05-07T06:18:40;0.00;0.00;0.00
68841;PMS5003;55849;48.482;2.332;2023-05-07T06:21:41;1.25;0.00;0.00
68841;PMS5003;55849;48.482;2.332;2023-05-07T06:24:43;0.00;0.00;0.00
68841;PMS5003;55849;48.482;2.332;2023-05-07T06:27:46;0.00;0.00;0.00
68841;PMS5003;55849;48.482;2.332;2023-05-07T06:30:47;0.00;0.00;0.00
68841;PMS5003;55849;48.482;2.332;2023-05-07T06:33:49;0.00;0.00;0.00
68841;PMS5003;55849;48.482;2.332;2023-05-07T06:36:51;0.00;0.00;0.00
68841;PMS5003;55849;48.482;2.332;2023-05-07T06:39:53;0.00;0.00;0.00
68841;PMS5003;55849;48.482;2.332;2023-05-07T06:42:56;0.00;0.00;0.00
68841;PMS5003;55849;48.482;2.332;2023-05-07T06:45:57;0.00;0.00;0.00
68841;PMS5003;55849;48.482;2.332;2023-05-07T06:48:59;0.00;0.00;0.00
68841;PMS5003;55849;48.482;2.332;2023-05-07T06:52:00;2.00;0.00;0.00
68841;PMS5003;55849;48.482;2.332;2023-05-07T06:55:02;0.50;0.50;0.00
68841;PMS5003;55849;48.482;2.332;2023-05-07T06:58:06;0.75;0.75;0.00
68841;PMS5003;55849;48.482;2.332;2023-05-07T07:01:08;2.00;2.00;0.00
68841;PMS5003;55849;48.482;2.332;2023-05-07T07:04:09;0.00;0.00;0.00
68841;PMS5003;55849;48.482;2.332;2023-05-07T07:07:11;0.00;0.00;0.00
68841;PMS5003;55849;48.482;2.332;2023-05-07T07:10:13;0.50;0.00;0.00
68841;PMS5003;55849;48.482;2.332;2023-05-07T07:13:16;0.00;0.00;0.00
68841;PMS5003;55849;48.482;2.332;2023-05-07T07:16:17;0.00;0.00;0.00
68841;PMS5003;55849;48.482;2.332;2023-05-07T07:19:19;0.00;0.00;0.00
68841;PMS5003;55849;48.482;2.332;2023-05-07T07:22:21;1.00;0.00;0.00
68841;PMS5003;55849;48.482;2.332;2023-05-07T07:25:22;0.00;0.00;0.00
68841;PMS5003;55849;48.482;2.332;2023-05-07T07:28:25;0.00;0.00;0.00
68841;PMS5003;55849;48.482;2.332;2023-05-07T07:31:27;1.00;1.00;0.00
68841;PMS5003;55849;48.482;2.332;2023-05-07T07:34:29;1.50;0.25;0.00
68841;PMS5003;55849;48.482;2.332;2023-05-07T07:37:30;0.25;0.25;0.25
68841;PMS5003;55849;48.482;2.332;2023-05-07T07:40:34;1.00;1.00;0.00
68841;PMS5003;55849;48.482;2.332;2023-05-07T07:43:37;1.00;1.00;0.75
68841;PMS5003;55849;48.482;2.332;2023-05-07T07:46:39;0.50;0.50;0.50
68841;PMS5003;55849;48.482;2.332;2023-05-07T07:49:40;0.00;0.00;0.00
68841;PMS5003;55849;48.482;2.332;2023-05-07T07:52:42;0.50;0.50;0.50
68841;PMS5003;55849;48.482;2.332;2023-05-07T07:55:43;0.00;0.00;0.00
68841;PMS5003;55849;48.482;2.332;2023-05-07T07:58:47;0.00;0.00;0.00
68841;PMS5003;55849;48.482;2.332;2023-05-07T08:01:48;0.00;0.00;0.00
68841;PMS5003;55849;48.482;2.332;2023-05-07T08:04:52;1.00;1.00;1.00
68841;PMS5003;55849;48.482;2.332;2023-05-07T08:07:53;0.00;0.00;0.00
68841;PMS5003;55849;48.482;2.332;2023-05-07T08:10:55;2.50;1.00;0.00
68841;PMS5003;55849;48.482;2.332;2023-05-07T08:13:58;0.75;0.75;0.00
68841;PMS5003;55849;48.482;2.332;2023-05-07T08:17:00;0.75;0.75;0.00
68841;PMS5003;55849;48.482;2.332;2023-05-07T08:20:02;1.00;1.00;0.25
68841;PMS5003;55849;48.482;2.332;2023-05-07T08:23:03;1.50;1.50;0.50
68841;PMS5003;55849;48.482;2.332;2023-05-07T08:26:08;1.00;1.00;0.75
68841;PMS5003;55849;48.482;2.332;2023-05-07T08:29:11;1.50;1.50;0.00
68841;PMS5003;55849;48.482;2.332;2023-05-07T08:32:13;0.00;0.00;0.00
68841;PMS5003;55849;48.482;2.332;2023-05-07T08:35:14;0.00;0.00;0.00
68841;PMS5003;55849;48.482;2.332;2023-05-07T08:38:16;4.50;3.50;2.50
68841;PMS5003;55849;48.482;2.332;2023-05-07T08:41:18;4.75;4.75;4.00
68841;PMS5003;55849;48.482;2.332;2023-05-07T08:44:21;5.00;5.00;3.50
68841;PMS5003;55849;48.482;2.332;2023-05-07T08:47:24;4.75;4.75;4.00
68841;PMS5003;55849;48.482;2.332;2023-05-07T08:50:30;3.00;3.00;2.50
68841;PMS5003;55849;48.482;2.332;2023-05-07T08:53:32;2.75;2.00;1.25
68841;PMS5003;55849;48.482;2.332;2023-05-07T08:56:34;1.25;1.25;1.25
68841;PMS5003;55849;48.482;2.332;2023-05-07T08:59:37;1.00;1.00;0.75
68841;PMS5003;55849;48.482;2.332;2023-05-07T09:02:38;0.75;0.75;0.75
68841;PMS5003;55849;48.482;2.332;2023-05-07T09:05:40;1.50;1.50;1.00
68841;PMS5003;55849;48.482;2.332;2023-05-07T09:08:44;1.25;1.25;0.75
68841;PMS5003;55849;48.482;2.332;2023-05-07T09:11:56;5.00;2.50;1.50
68841;PMS5003;55849;48.482;2.332;2023-05-07T09:15:00;3.75;2.75;1.75
68841;PMS5003;55849;48.482;2.332;2023-05-07T09:18:02;2.00;2.00;0.50
68841;PMS5003;55849;48.482;2.332;2023-05-07T09:21:04;2.00;2.00;1.25
68841;PMS5003;55849;48.482;2.332;2023-05-07T09:24:06;2.00;2.00;1.00
68841;PMS5003;55849;48.482;2.332;2023-05-07T09:27:07;1.50;1.50;0.50
68841;PMS5003;55849;48.482;2.332;2023-05-07T09:30:14;2.25;2.25;1.75
68841;PMS5003;55849;48.482;2.332;2023-05-07T09:33:16;2.50;2.50;2.25
68841;PMS5003;55849;48.482;2.332;2023-05-07T09:36:17;2.25;2.25;2.00
68841;PMS5003;55849;48.482;2.332;2023-05-07T09:39:19;3.50;3.50;2.50
68841;PMS5003;55849;48.482;2.332;2023-05-07T09:42:22;4.25;3.50;1.50
68841;PMS5003;55849;48.482;2.332;2023-05-07T09:45:26;2.75;2.75;1.75
68841;PMS5003;55849;48.482;2.332;2023-05-07T09:48:28;3.50;3.50;3.00
68841;PMS5003;55849;48.482;2.332;2023-05-07T09:51:33;4.75;3.00;2.75
68841;PMS5003;55849;48.482;2.332;2023-05-07T09:54:40;3.75;3.75;3.00
68841;PMS5003;55849;48.482;2.332;2023-05-07T09:57:44;4.00;4.00;3.00
68841;PMS5003;55849;48.482;2.332;2023-05-07T10:00:48;4.25;4.25;2.25
68841;PMS5003;55849;48.482;2.332;2023-05-07T10:03:51;5.25;5.25;4.00
68841;PMS5003;55849;48.482;2.332;2023-05-07T10:06:54;2.75;2.00;2.00
68841;PMS5003;55849;48.482;2.332;2023-05-07T10:09:56;4.75;3.00;2.00
68841;PMS5003;55849;48.482;2.332;2023-05-07T10:13:00;6.50;3.75;2.75
68841;PMS5003;55849;48.482;2.332;2023-05-07T10:16:07;2.50;2.50;2.50
68841;PMS5003;55849;48.482;2.332;2023-05-07T10:19:08;5.75;4.75;3.25
68841;PMS5003;55849;48.482;2.332;2023-05-07T10:22:11;7.75;5.25;4.50
68841;PMS5003;55849;48.482;2.332;2023-05-07T10:25:18;5.75;5.75;3.25
68841;PMS5003;55849;48.482;2.332;2023-05-07T10:28:23;6.25;6.25;4.25
68841;PMS5003;55849;48.482;2.332;2023-05-07T10:31:33;4.50;4.50;3.50
68841;PMS5003;55849;48.482;2.332;2023-05-07T10:34:48;7.00;5.75;4.00
68841;PMS5003;55849;48.482;2.332;2023-05-07T10:37:52;5.25;5.25;3.75
68841;PMS5003;55849;48.482;2.332;2023-05-07T10:40:53;6.50;6.50;3.25
68841;PMS5003;55849;48.482;2.332;2023-05-07T10:43:55;9.50;6.50;4.00
68841;PMS5003;55849;48.482;2.332;2023-05-07T10:47:05;6.00;6.00;3.75
68841;PMS5003;55849;48.482;2.332;2023-05-07T10:50:21;6.25;5.25;3.75
68841;PMS5003;55849;48.482;2.332;2023-05-07T10:53:24;5.25;3.75;3.00
68841;PMS5003;55849;48.482;2.332;2023-05-07T10:56:29;3.75;3.75;2.75
68841;PMS5003;55849;48.482;2.332;2023-05-07T10:59:34;3.75;3.50;2.50
68841;PMS5003;55849;48.482;2.332;2023-05-07T11:06:11;4.00;4.00;2.00
68841;PMS5003;55849;48.482;2.332;2023-05-07T11:09:13;3.00;3.00;2.75
68841;PMS5003;55849;48.482;2.332;2023-05-07T11:12:16;3.50;3.50;3.50
68841;PMS5003;55849;48.482;2.332;2023-05-07T11:15:37;8.00;5.25;3.00
68841;PMS5003;55849;48.482;2.332;2023-05-07T11:18:47;5.50;4.50;3.25
68841;PMS5003;55849;48.482;2.332;2023-05-07T11:21:50;4.00;4.00;3.00
68841;PMS5003;55849;48.482;2.332;2023-05-07T11:24:51;4.75;3.50;3.00
68841;PMS5003;55849;48.482;2.332;2023-05-07T11:27:53;6.25;5.00;5.00
68841;PMS5003;55849;48.482;2.332;2023-05-07T11:30:55;7.00;4.50;2.75
68841;PMS5003;55849;48.482;2.332;2023-05-07T11:33:59;4.00;4.00;3.00
68841;PMS5003;55849;48.482;2.332;2023-05-07T11:37:01;4.50;2.50;2.00
68841;PMS5003;55849;48.482;2.332;2023-05-07T11:40:04;4.00;4.00;3.00
68841;PMS5003;55849;48.482;2.332;2023-05-07T11:43:10;3.50;3.50;2.00
68841;PMS5003;55849;48.482;2.332;2023-05-07T11:46:12;4.00;3.00;3.00
68841;PMS5003;55849;48.482;2.332;2023-05-07T11:49:15;3.00;3.00;1.50
68841;PMS5003;55849;48.482;2.332;2023-05-07T11:52:18;2.25;2.25;1.50
68841;PMS5003;55849;48.482;2.332;2023-05-07T11:55:20;2.25;2.00;2.00
68841;PMS5003;55849;48.482;2.332;2023-05-07T11:58:24;3.00;3.00;2.00
68841;PMS5003;55849;48.482;2.332;2023-05-07T12:01:26;1.50;1.50;1.25
68841;PMS5003;55849;48.482;2.332;2023-05-07T12:04:30;2.75;2.75;2.00
68841;PMS5003;55849;48.482;2.332;2023-05-07T12:07:33;2.50;2.50;1.50
68841;PMS5003;55849;48.482;2.332;2023-05-07T12:10:34;1.00;1.00;1.00
68841;PMS5003;55849;48.482;2.332;2023-05-07T12:13:42;2.25;2.25;1.50
68841;PMS5003;55849;48.482;2.332;2023-05-07T12:16:44;4.00;2.75;1.75
68841;PMS5003;55849;48.482;2.332;2023-05-07T12:19:47;1.75;1.75;1.00
68841;PMS5003;55849;48.482;2.332;2023-05-07T12:22:49;4.00;2.00;1.00
68841;PMS5003;55849;48.482;2.332;2023-05-07T12:25:52;2.00;2.00;1.00
68841;PMS5003;55849;48.482;2.332;2023-05-07T12:28:54;1.00;1.00;0.00
68841;PMS5003;55849;48.482;2.332;2023-05-07T12:31:55;2.00;2.00;1.50
68841;PMS5003;55849;48.482;2.332;2023-05-07T12:34:58;2.00;2.00;1.00
68841;PMS5003;55849;48.482;2.332;2023-05-07T12:38:00;2.25;2.25;2.00
68841;PMS5003;55849;48.482;2.332;2023-05-07T12:41:04;2.00;2.00;1.50
68841;PMS5003;55849;48.482;2.332;2023-05-07T12:44:07;2.75;2.25;1.75
68841;PMS5003;55849;48.482;2.332;2023-05-07T12:47:08;1.75;1.75;1.50
68841;PMS5003;55849;48.482;2.332;2023-05-07T12:50:11;1.00;1.00;1.00
68841;PMS5003;55849;48.482;2.332;2023-05-07T12:53:14;1.25;1.25;1.00
68841;PMS5003;55849;48.482;2.332;2023-05-07T12:56:15;2.75;2.75;2.00
68841;PMS5003;55849;48.482;2.332;2023-05-07T12:59:17;2.00;2.00;1.00
68841;PMS5003;55849;48.482;2.332;2023-05-07T13:02:19;2.00;2.00;2.00
68841;PMS5003;55849;48.482;2.332;2023-05-07T13:05:22;2.00;2.00;2.00
68841;PMS5003;55849;48.482;2.332;2023-05-07T13:08:24;3.00;3.00;2.00
68841;PMS5003;55849;48.482;2.332;2023-05-07T13:11:27;2.00;2.00;2.00
68841;PMS5003;55849;48.482;2.332;2023-05-07T13:14:29;3.00;3.00;2.00
68841;PMS5003;55849;48.482;2.332;2023-05-07T13:17:30;2.00;2.00;1.75
68841;PMS5003;55849;48.482;2.332;2023-05-07T13:20:33;2.00;2.00;1.75
68841;PMS5003;55849;48.482;2.332;2023-05-07T13:23:35;3.00;2.00;1.00
68841;PMS5003;55849;48.482;2.332;2023-05-07T13:26:38;2.00;2.00;2.00
68841;PMS5003;55849;48.482;2.332;2023-05-07T13:29:40;1.25;1.25;1.00
68841;PMS5003;55849;48.482;2.332;2023-05-07T13:32:41;3.25;2.75;2.50
68841;PMS5003;55849;48.482;2.332;2023-05-07T13:35:44;4.00;4.00;2.50
68841;PMS5003;55849;48.482;2.332;2023-05-07T13:38:46;2.75;2.75;2.50
68841;PMS5003;55849;48.482;2.332;2023-05-07T13:41:47;3.00;3.00;2.00
68841;PMS5003;55849;48.482;2.332;2023-05-07T13:44:49;2.25;2.25;2.25
68841;PMS5003;55849;48.482;2.332;2023-05-07T13:47:51;4.00;4.00;2.25
68841;PMS5003;55849;48.482;2.332;2023-05-07T13:50:54;4.00;4.00;3.00
68841;PMS5003;55849;48.482;2.332;2023-05-07T13:53:55;4.00;3.00;2.25
68841;PMS5003;55849;48.482;2.332;2023-05-07T13:56:58;2.00;2.00;1.50
68841;PMS5003;55849;48.482;2.332;2023-05-07T14:00:00;4.00;4.00;2.75
68841;PMS5003;55849;48.482;2.332;2023-05-07T14:03:02;1.50;1.50;1.00
68841;PMS5003;55849;48.482;2.332;2023-05-07T14:06:07;3.00;2.00;2.00
68841;PMS5003;55849;48.482;2.332;2023-05-07T14:09:09;2.25;2.25;1.75
68841;PMS5003;55849;48.482;2.332;2023-05-07T14:12:13;3.00;3.00;2.00
68841;PMS5003;55849;48.482;2.332;2023-05-07T14:15:14;2.00;2.00;1.00
68841;PMS5003;55849;48.482;2.332;2023-05-07T14:18:16;3.00;3.00;2.00
68841;PMS5003;55849;48.482;2.332;2023-05-07T14:21:19;2.75;2.75;2.00
68841;PMS5003;55849;48.482;2.332;2023-05-07T14:24:21;6.50;3.00;2.00
68841;PMS5003;55849;48.482;2.332;2023-05-07T14:27:22;3.50;3.50;2.00
68841;PMS5003;55849;48.482;2.332;2023-05-07T14:30:24;4.25;1.25;1.00
68841;PMS5003;55849;48.482;2.332;2023-05-07T14:33:26;3.50;3.00;1.25
68841;PMS5003;55849;48.482;2.332;2023-05-07T14:36:29;6.50;2.75;2.00
68841;PMS5003;55849;48.482;2.332;2023-05-07T14:39:31;4.50;3.25;2.00
68841;PMS5003;55849;48.482;2.332;2023-05-07T14:42:33;3.25;3.00;2.00
68841;PMS5003;55849;48.482;2.332;2023-05-07T14:45:34;4.00;2.75;2.00
68841;PMS5003;55849;48.482;2.332;2023-05-07T14:48:36;3.75;3.75;3.00
68841;PMS5003;55849;48.482;2.332;2023-05-07T14:51:39;3.50;3.50;2.75
68841;PMS5003;55849;48.482;2.332;2023-05-07T14:54:40;3.00;3.00;2.00
68841;PMS5003;55849;48.482;2.332;2023-05-07T14:57:42;3.00;3.00;2.00
68841;PMS5003;55849;48.482;2.332;2023-05-07T15:00:44;3.25;3.25;2.25
68841;PMS5003;55849;48.482;2.332;2023-05-07T15:03:45;1.75;1.75;1.50
68841;PMS5003;55849;48.482;2.332;2023-05-07T15:06:48;3.75;3.00;2.00
68841;PMS5003;55849;48.482;2.332;2023-05-07T15:09:50;3.25;3.00;2.00
68841;PMS5003;55849;48.482;2.332;2023-05-07T15:12:52;3.75;3.75;2.00
68841;PMS5003;55849;48.482;2.332;2023-05-07T15:15:53;5.25;3.75;2.25
68841;PMS5003;55849;48.482;2.332;2023-05-07T15:18:55;3.50;3.50;2.50
68841;PMS5003;55849;48.482;2.332;2023-05-07T15:21:59;2.00;2.00;1.50
68841;PMS5003;55849;48.482;2.332;2023-05-07T15:25:02;5.00;3.25;3.00
68841;PMS5003;55849;48.482;2.332;2023-05-07T15:28:05;3.00;3.00;2.75
68841;PMS5003;55849;48.482;2.332;2023-05-07T15:31:07;2.25;2.00;2.00
68841;PMS5003;55849;48.482;2.332;2023-05-07T15:37:21;3.00;3.00;2.50
68841;PMS5003;55849;48.482;2.332;2023-05-07T15:40:22;0.00;0.00;0.00
68841;PMS5003;55849;48.482;2.332;2023-05-07T15:43:24;3.75;2.00;1.75
68841;PMS5003;55849;48.482;2.332;2023-05-07T15:46:26;4.00;2.25;1.00
68841;PMS5003;55849;48.482;2.332;2023-05-07T15:49:28;1.00;1.00;1.00
68841;PMS5003;55849;48.482;2.332;2023-05-07T15:52:31;2.25;2.25;2.00
68841;PMS5003;55849;48.482;2.332;2023-05-07T15:55:33;2.50;1.00;1.00
68841;PMS5003;55849;48.482;2.332;2023-05-07T15:58:35;2.00;2.00;1.00
68841;PMS5003;55849;48.482;2.332;2023-05-07T16:01:37;2.00;2.00;1.25
68841;PMS5003;55849;48.482;2.332;2023-05-07T16:04:40;2.50;2.50;1.75
68841;PMS5003;55849;48.482;2.332;2023-05-07T16:07:43;3.00;1.50;1.00
68841;PMS5003;55849;48.482;2.332;2023-05-07T16:10:44;1.00;1.00;1.00
68841;PMS5003;55849;48.482;2.332;2023-05-07T16:13:46;1.25;1.25;1.00
68841;PMS5003;55849;48.482;2.332;2023-05-07T16:16:48;1.50;1.50;1.00
68841;PMS5003;55849;48.482;2.332;2023-05-07T16:19:49;1.00;0.25;0.25
68841;PMS5003;55849;48.482;2.332;2023-05-07T16:22:53;3.00;1.25;1.00
68841;PMS5003;55849;48.482;2.332;2023-05-07T16:25:54;1.00;1.00;1.00
68841;PMS5003;55849;48.482;2.332;2023-05-07T16:28:56;2.25;0.25;0.25
68841;PMS5003;55849;48.482;2.332;2023-05-07T16:31:58;1.00;1.00;1.00
68841;PMS5003;55849;48.482;2.332;2023-05-07T16:34:59;1.75;1.75;1.00
68841;PMS5003;55849;48.482;2.332;2023-05-07T16:38:02;1.00;1.00;1.00
68841;PMS5003;55849;48.482;2.332;2023-05-07T16:41:08;2.00;2.00;1.00
68841;PMS5003;55849;48.482;2.332;2023-05-07T16:44:10;1.00;1.00;1.00
68841;PMS5003;55849;48.482;2.332;2023-05-07T16:47:11;3.25;3.00;1.50
68841;PMS5003;55849;48.482;2.332;2023-05-07T16:50:13;1.75;1.75;1.00
68841;PMS5003;55849;48.482;2.332;2023-05-07T16:53:16;2.25;2.25;2.00
68841;PMS5003;55849;48.482;2.332;2023-05-07T16:56:18;2.50;2.50;1.50
68841;PMS5003;55849;48.482;2.332;2023-05-07T16:59:21;1.00;1.00;1.00
68841;PMS5003;55849;48.482;2.332;2023-05-07T17:02:23;3.00;1.00;1.00
68841;PMS5003;55849;48.482;2.332;2023-05-07T17:05:24;2.00;2.00;1.25
68841;PMS5003;55849;48.482;2.332;2023-05-07T17:08:27;1.25;1.25;0.50
68841;PMS5003;55849;48.482;2.332;2023-05-07T17:11:29;1.25;1.25;1.00
68841;PMS5003;55849;48.482;2.332;2023-05-07T17:14:32;1.50;1.50;1.50
68841;PMS5003;55849;48.482;2.332;2023-05-07T17:17:34;3.00;3.00;2.00
68841;PMS5003;55849;48.482;2.332;2023-05-07T17:20:36;1.75;1.75;1.00
68841;PMS5003;55849;48.482;2.332;2023-05-07T17:23:40;1.00;1.00;0.50
68841;PMS5003;55849;48.482;2.332;2023-05-07T17:26:41;1.00;1.00;1.00
68841;PMS5003;55849;48.482;2.332;2023-05-07T17:29:43;1.00;1.00;1.00
68841;PMS5003;55849;48.482;2.332;2023-05-07T17:32:45;1.00;1.00;1.00
68841;PMS5003;55849;48.482;2.332;2023-05-07T17:35:46;0.75;0.75;0.00
68841;PMS5003;55849;48.482;2.332;2023-05-07T17:38:49;2.50;1.50;1.00
68841;PMS5003;55849;48.482;2.332;2023-05-07T17:41:51;1.25;1.25;1.00
68841;PMS5003;55849;48.482;2.332;2023-05-07T17:44:52;1.00;1.00;1.00
68841;PMS5003;55849;48.482;2.332;2023-05-07T17:47:54;1.75;1.75;1.00
68841;PMS5003;55849;48.482;2.332;2023-05-07T17:50:59;2.00;2.00;1.00
68841;PMS5003;55849;48.482;2.332;2023-05-07T17:54:02;1.00;1.00;1.00
68841;PMS5003;55849;48.482;2.332;2023-05-07T17:57:04;1.00;1.00;1.00